May 18, 2022

Time Code Weather Temp. Visibility Clouds Wind METAR/SPECI
10:25 am
V
72 °F 6¼ mi+ 38,000 ft 240°   240° 8 kt METAR EHLW 180825Z AUTO 24008KT 190V270 9999 BKN380 22/14 Q1019 BLU NOSIG
9:55 am
V
70 °F 6¼ mi+ 39,000 ft 220°   220° 8 kt METAR EHLW 180755Z AUTO 22008KT 190V250 9999 FEW071 SCT100 BKN390 21/14 Q1019 BLU NOSIG
9:30 am
V
70 °F 6¼ mi+ 13,000 ft 220°   220° 7 kt METAR EHLW 180730Z AUTO 22007KT 170V240 9999 BKN130 OVC380 21/15 Q1019 BLU NOSIG
9:25 am
V
68 °F 6¼ mi+ 11,000 ft 210°   210° 7 kt METAR EHLW 180725Z AUTO 21007KT 170V240 9999 OVC110 20/14 Q1019 BLU BECMG 22008KT
8:55 am
V
66 °F 6¼ mi+ 37,000 ft 190°   190° 8 kt METAR EHLW 180655Z AUTO 19008KT 150V250 9999 SCT059 SCT065 OVC370 19/15 Q1019 BLU BECMG 22008KT
8:25 am
V
64 °F 6¼ mi+ - 170°   170° 7 kt METAR EHLW 180625Z AUTO 17007KT 110V190 9999 NCD 18/14 Q1019 BLU BECMG 22005KT
8:00 am
V
63 °F 6¼ mi+ - 170°   170° 6 kt METAR EHLW 180600Z AUTO 17006KT 130V190 9999 FEW069 17/14 Q1019 BLU BECMG 22005KT
7:55 am
V
63 °F 6¼ mi+ - 170°   170° 7 kt METAR EHLW 180555Z AUTO 17007KT 130V190 9999 FEW071 17/14 Q1019 BLU
7:25 am
V
63 °F 6¼ mi+ 12,000 ft 160°   160° 6 kt METAR EHLW 180525Z AUTO 16006KT 120V180 9999 BKN120 17/13 Q1018 BLU
6:55 am
V
61 °F 6¼ mi+ - 150°   150° 7 kt METAR EHLW 180455Z AUTO 15007KT 120V180 9999 SCT130 16/13 Q1018 BLU
6:25 am
V
61 °F 6¼ mi+ 15,000 ft 140°   140° 8 kt METAR EHLW 180425Z AUTO 14008KT 100V160 9999 OVC150 16/13 Q1018 BLU
5:55 am
V
61 °F 6¼ mi+ - 150°   150° 7 kt METAR EHLW 180355Z AUTO 15007KT 110V170 9999 FEW170 16/13 Q1018 BLU
5:25 am
V
61 °F 6¼ mi+ 38,000 ft 140°   140° 7 kt METAR EHLW 180325Z AUTO 14007KT 110V170 9999 OVC380/// 16/13 Q1018 BLU
4:55 am
V
61 °F 6¼ mi+ 38,000 ft 140°   140° 7 kt METAR EHLW 180255Z AUTO 14007KT 110V170 9999 SCT190 OVC380 16/13 Q1018 BLU
4:25 am
V
61 °F 6¼ mi+ 38,000 ft 150°   150° 7 kt METAR EHLW 180225Z AUTO 15007KT 120V180 9999 SCT190 OVC380 16/13 Q1018 BLU
3:55 am
V
63 °F 6¼ mi+ 15,000 ft 150°   150° 7 kt METAR EHLW 180155Z AUTO 15007KT 100V170 9999 OVC150 17/13 Q1018 BLU
3:25 am
V
63 °F 6¼ mi+ - 150°   150° 5 kt METAR EHLW 180125Z AUTO 15005KT 9999 NCD 17/13 Q1018 BLU
2:55 am
V
63 °F 6¼ mi+ - 140°   140° 6 kt METAR EHLW 180055Z AUTO 14006KT 110V180 9999 NCD 17/13 Q1018 BLU
2:25 am
V
64 °F 6¼ mi+ - 130°   130° 8 kt METAR EHLW 180025Z AUTO 13008KT 080V150 9999 NCD 18/13 Q1018 BLU RMK CB INFO NOT AVBL
1:55 am
V
64 °F 6¼ mi+ 37,000 ft 130°   130° 8 kt METAR EHLW 172355Z AUTO 13008KT 070V160 9999 BKN370 18/13 Q1018 BLU
1:25 am
V
64 °F 6¼ mi+ 14,000 ft 130°   130° 8 kt METAR EHLW 172325Z AUTO 13008KT 090V160 9999 BKN140 18/14 Q1018 BLU
12:55 am
V
64 °F 6¼ mi+ 16,000 ft 130°   130° 8 kt METAR EHLW 172255Z AUTO 13008KT 090V170 9999 BKN160 18/13 Q1018 BLU
12:25 am
V
64 °F 6¼ mi+ 15,000 ft 120°   120° 6 kt METAR EHLW 172225Z AUTO 12006KT 060V170 9999 OVC150 18/13 Q1018 BLU

May 17, 2022

Time Code Weather Temp. Visibility Clouds Wind METAR/SPECI
11:55 pm
V
63 °F 6¼ mi+ 16,000 ft 100°   100° 4 kt METAR EHLW 172155Z AUTO 10004KT 020V150 9999 OVC160 17/13 Q1018 BLU
11:25 pm
V
63 °F 6¼ mi+ 15,000 ft Var   Var 5 kt METAR EHLW 172125Z AUTO VRB05KT 9999 OVC150 17/13 Q1019 BLU
10:55 pm
V
63 °F 6¼ mi+ 16,000 ft Var   Var 7 kt METAR EHLW 172055Z AUTO VRB07KT 9999 OVC160 17/12 Q1019 BLU
10:25 pm
V
63 °F 6¼ mi+ 14,000 ft 080°   080° 8 kt METAR EHLW 172025Z AUTO 08008KT 360V170 9999 OVC140 17/12 Q1019 BLU
9:55 pm
V
63 °F 6¼ mi+ 14,000 ft Var   Var 7 kt METAR EHLW 171955Z AUTO VRB07KT 9999 OVC140 17/13 Q1019 BLU
9:25 pm
V
63 °F 6¼ mi+ 14,000 ft 060°   060° 6 kt METAR EHLW 171925Z AUTO 06006KT 360V120 9999 OVC140 17/13 Q1019 BLU
8:55 pm
V
64 °F 6¼ mi+ 15,000 ft 060°   060° 9 kt METAR EHLW 171855Z AUTO 06009KT 360V110 9999 OVC150 18/11 Q1019 BLU
8:25 pm
V
64 °F 6¼ mi+ 16,000 ft 040°   040° 7 kt METAR EHLW 171825Z AUTO 04007KT 360V060 9999 OVC160 18/13 Q1019 BLU
7:55 pm
V
66 °F 6¼ mi+ 17,000 ft 050°   050° 9 kt METAR EHLW 171755Z AUTO 05009KT 360V070 9999 OVC170 19/12 Q1019 BLU
7:25 pm
V
68 °F 6¼ mi+ 18,000 ft 050°   050° 8 kt METAR EHLW 171725Z AUTO 05008KT 360V090 9999 OVC180 20/12 Q1019 BLU
6:55 pm
V
70 °F 6¼ mi+ 18,000 ft 040°   040° 6 kt METAR EHLW 171655Z AUTO 04006KT 360V090 9999 FEW060 BKN180 21/13 Q1019 BLU
6:25 pm
V
72 °F 6¼ mi+ 24,000 ft 050°   050° 4 kt METAR EHLW 171625Z AUTO 05004KT 350V130 9999 SCT045 OVC240 22/12 Q1019 BLU
5:55 pm
V
70 °F 6¼ mi+ 4,300 ft 020°   020° 5 kt METAR EHLW 171555Z AUTO 02005KT 340V100 9999 OVC043 21/12 Q1019 BLU
5:25 pm
V
70 °F 6¼ mi+ 5,900 ft 350°   350° 6 kt METAR EHLW 171525Z AUTO 35006KT 290V040 9999 FEW048 BKN059 BKN064 21/12 Q1019 BLU
4:55 pm
V
72 °F 6¼ mi+ 6,000 ft 020°   020° 7 kt METAR EHLW 171455Z AUTO 02007KT 360V070 9999 OVC060 22/11 Q1019 BLU
4:25 pm
V
73 °F 6¼ mi+ 23,000 ft Var   Var 2 kt METAR EHLW 171425Z AUTO VRB02KT 9999 FEW061 BKN230 23/09 Q1019 BLU
3:55 pm
V
73 °F 6¼ mi+ - 230°   230° 4 kt METAR EHLW 171355Z AUTO 23004KT 290V060 9999 NCD 23/10 Q1019 BLU RMK CB INFO NOT AVBL
3:25 pm
V
72 °F 6¼ mi+ - Var   Var 5 kt METAR EHLW 171325Z AUTO VRB05KT 9999 NCD 22/09 Q1019 BLU NOSIG RMK CB INFO NOT AVBL
2:55 pm
V
72 °F 6¼ mi+ - Var   Var 3 kt METAR EHLW 171255Z AUTO VRB03KT 9999 SCT055 22/08 Q1020 BLU NOSIG
2:25 pm
V
72 °F 6¼ mi+ - Var   Var 5 kt METAR EHLW 171225Z AUTO VRB05KT 9999 FEW053 22/09 Q1020 BLU NOSIG
1:55 pm
V
72 °F 6¼ mi+ - 250°   250° 5 kt METAR EHLW 171155Z AUTO 25005KT 170V330 9999 NCD 22/09 Q1020 BLU NOSIG
1:25 pm
V
72 °F 6¼ mi+ - 250°   250° 4 kt METAR EHLW 171125Z AUTO 25004KT 150V320 9999 SCT370 22/09 Q1020 BLU NOSIG
12:55 pm
V
70 °F 6¼ mi+ - 270°   270° 5 kt METAR EHLW 171055Z AUTO 27005KT 220V330 9999 FEW370 21/09 Q1020 BLU NOSIG
12:25 pm
V
70 °F 6¼ mi+ - 260°   260° 6 kt METAR EHLW 171025Z AUTO 26006KT 190V280 9999 NCD 21/10 Q1020 BLU NOSIG
11:55 am
V
68 °F 6¼ mi+ - 260°   260° 6 kt METAR EHLW 170955Z AUTO 26006KT 190V270 9999 FEW370 20/11 Q1020 BLU NOSIG
11:25 am
V
68 °F 6¼ mi+ 38,000 ft 230°   230° 7 kt METAR EHLW 170925Z AUTO 23007KT 170V310 9999 BKN380 20/11 Q1020 BLU NOSIG
10:55 am
V
66 °F 6¼ mi+ 38,000 ft 250°   250° 4 kt METAR EHLW 170855Z AUTO 25004KT 230V320 9999 BKN380 19/12 Q1020 BLU NOSIG
10:25 am
V
64 °F 6¼ mi+ - 280°   280° 6 kt METAR EHLW 170825Z AUTO 28006KT 220V300 9999 FEW390 18/13 Q1020 BLU NOSIG
9:55 am
V
64 °F 6¼ mi+ - 250°   250° 7 kt METAR EHLW 170755Z AUTO 25007KT 230V320 9999 SCT380 18/13 Q1020 BLU NOSIG
9:25 am
V
63 °F 6¼ mi+ 31,000 ft 260°   260° 9 kt METAR EHLW 170725Z AUTO 26009KT 210V270 9999 OVC310 17/13 Q1020 BLU NOSIG
8:55 am
V
61 °F 6¼ mi+ 15,000 ft 260°   260° 10 kt METAR EHLW 170655Z AUTO 26010KT 9999 OVC150 16/13 Q1020 BLU NOSIG
8:25 am
V
61 °F 6¼ mi+ 15,000 ft 250°   250° 9 kt METAR EHLW 170625Z AUTO 25009KT 220V290 9999 OVC150 16/13 Q1019 BLU NOSIG
7:55 am
V
59 °F 6¼ mi+ 16,000 ft 240°   240° 7 kt METAR EHLW 170555Z AUTO 24007KT 9999 OVC160 15/13 Q1019 BLU NOSIG
7:25 am
V
59 °F 6¼ mi+ 16,000 ft 240°   240° 6 kt METAR EHLW 170525Z AUTO 24006KT 9999 OVC160 15/13 Q1019 BLU
6:55 am
V
55 °F 6¼ mi+ 16,000 ft 230°   230° 6 kt METAR EHLW 170455Z AUTO 23006KT 9999 OVC160 13/12 Q1019 BLU
6:25 am
V
54 °F 6¼ mi+ 17,000 ft 220°   220° 6 kt METAR EHLW 170425Z AUTO 22006KT 9999 OVC170 12/11 Q1018 BLU
5:55 am
V
52 °F 6¼ mi+ 16,000 ft 220°   220° 6 kt METAR EHLW 170355Z AUTO 22006KT 9999 OVC160 11/11 Q1018 BLU
5:25 am
V
52 °F 6¼ mi+ 17,000 ft 220°   220° 7 kt METAR EHLW 170325Z AUTO 22007KT 9999 FEW036 BKN170 OVC320 11/10 Q1018 BLU
4:55 am
V
52 °F 6¼ mi+ - 210°   210° 5 kt METAR EHLW 170255Z AUTO 21005KT 9999 FEW340 11/11 Q1018 BLU
4:25 am
V
54 °F 6¼ mi+ 26,000 ft 210°   210° 6 kt METAR EHLW 170225Z AUTO 21006KT 9999 OVC260 12/11 Q1018 BLU
3:55 am
V
55 °F 5⅝ mi - 210°   210° 5 kt METAR EHLW 170155Z AUTO 21005KT 170V230 9000 BR FEW260 13/12 Q1018 BLU
3:25 am
V
55 °F 6¼ mi+ - 210°   210° 7 kt METAR EHLW 170125Z AUTO 21007KT 9999 SCT260 13/12 Q1018 BLU
2:55 am
V
55 °F 6¼ mi+ - 210°   210° 7 kt METAR EHLW 170055Z AUTO 21007KT 9999 SCT042 SCT260 13/11 Q1018 BLU
2:25 am
V
55 °F 6¼ mi+ - 220°   220° 7 kt METAR EHLW 170025Z AUTO 22007KT 9999 NCD 13/12 Q1018 BLU RMK CB INFO NOT AVBL
1:55 am
V
55 °F 6¼ mi+ 27,000 ft 210°   210° 6 kt METAR EHLW 162355Z AUTO 21006KT 9999 OVC270 13/11 Q1018 BLU
1:25 am
V
55 °F 6¼ mi+ - 210°   210° 5 kt METAR EHLW 162325Z AUTO 21005KT 9999 NCD 13/12 Q1018 BLU
12:55 am
V
55 °F 6¼ mi+ - 210°   210° 5 kt METAR EHLW 162255Z AUTO 21005KT 9999 SCT290 13/12 Q1018 BLU
12:25 am
V
55 °F 5⅝ mi - 220°   220° 5 kt METAR EHLW 162225Z AUTO 22005KT 9000 BR NCD 13/12 Q1018 BLU

May 16, 2022

Time Code Weather Temp. Visibility Clouds Wind METAR/SPECI
11:55 pm
V
57 °F 6¼ mi+ - 230°   230° 7 kt METAR EHLW 162155Z AUTO 23007KT 9999 NCD 14/12 Q1018 BLU
11:25 pm
V
59 °F 6¼ mi+ - 240°   240° 8 kt METAR EHLW 162125Z AUTO 24008KT 200V260 9999 NCD 15/13 Q1017 BLU
10:55 pm
V
59 °F 6¼ mi+ 3,900 ft 230°   230° 7 kt METAR EHLW 162055Z AUTO 23007KT 9999 OVC039 15/13 Q1017 BLU
10:25 pm
V
61 °F 6¼ mi+ 4,600 ft 230°   230° 9 kt METAR EHLW 162025Z AUTO 23009KT 200V260 9999 FEW037 OVC046 16/13 Q1017 BLU
10:02 pm
V
61 °F 6¼ mi+ 3,500 ft 230°   230° 9 kt METAR EHLW 162002Z AUTO 23009KT 200V260 9999 FEW019 BKN035 OVC046 16/13 Q1017 BLU
9:55 pm
V
61 °F 6¼ mi+ 3,500 ft 240°   240° 10 kt METAR EHLW 161955Z AUTO 24010KT 200V260 9999 SCT019 BKN035 OVC046 16/13 Q1017 WHT
9:27 pm
V
61 °F 6¼ mi+ 4,400 ft 230°   230° 9 kt METAR EHLW 161927Z AUTO 23009KT 9999 FEW023 SCT035 OVC044 16/13 Q1017 BLU
9:25 pm
M
61 °F 6¼ mi+ 2,300 ft 230°   230° 10 kt METAR EHLW 161925Z AUTO 23010KT 200V260 9999 BKN023 OVC044 16/13 Q1017 WHT
9:18 pm
M
61 °F 6¼ mi+ 2,400 ft 240°   240° 11 kt METAR EHLW 161918Z AUTO 24011KT 200V270 9999 OVC024 16/13 Q1017 WHT
9:11 pm
M
61 °F 6¼ mi+ 2,500 ft 230°   230° 10 kt METAR EHLW 161911Z AUTO 23010KT 200V270 9999 OVC025 16/13 Q1017 BLU
8:55 pm
M
61 °F 6¼ mi+ 2,400 ft 240°   240° 11 kt METAR EHLW 161855Z AUTO 24011KT 200V260 9999 FEW011 OVC024 16/13 Q1016 WHT
8:25 pm
M
61 °F 6¼ mi+ 1,300 ft 250°   250° 12 kt METAR EHLW 161825Z AUTO 25012KT 9999 BKN013 OVC015 16/13 Q1016 GRN
8:04 pm
M
63 °F 6¼ mi+ 1,400 ft 240°   240° 12 kt METAR EHLW 161804Z AUTO 24012KT 220V280 9999 OVC014 17/14 Q1016 GRN
8:00 pm
M
63 °F 6¼ mi+ 1,500 ft 240°   240° 12 kt METAR EHLW 161800Z AUTO 24012KT 220V280 9999 OVC015 17/14 Q1016 WHT
7:55 pm
M
63 °F 6¼ mi+ 1,500 ft 250°   250° 12 kt METAR EHLW 161755Z AUTO 25012KT 210V280 9999 OVC015 17/14 Q1016 WHT
7:25 pm
M
63 °F 6¼ mi+ 1,500 ft 230°   230° 12 kt METAR EHLW 161725Z AUTO 23012KT 200V260 9999 OVC015 17/14 Q1016 WHT
6:55 pm
M
63 °F 6¼ mi+ 1,700 ft 240°   240° 10 kt METAR EHLW 161655Z AUTO 24010KT 200V260 9999 OVC017 17/14 Q1015 WHT
6:39 pm
M
63 °F 6¼ mi+ 1,600 ft 230°   230° 12 kt METAR EHLW 161639Z AUTO 23012KT 9999 FEW014 OVC016 17/14 Q1016 WHT
6:25 pm
M
63 °F 6¼ mi+ 1,600 ft 230°   230° 13 kt METAR EHLW 161625Z AUTO 23013KT 200V260 9999 SCT013 OVC016 17/14 Q1016 GRN
5:55 pm
M
64 °F 6¼ mi+ 1,400 ft 240°   240° 16 kt METAR EHLW 161555Z AUTO 24016KT 200V260 9999 -RA BKN014 OVC017 18/14 Q1015 GRN
5:41 pm
V
64 °F 6¼ mi+ 9,300 ft 240°   240° 14 kt METAR EHLW 161541Z AUTO 24014KT 210V270 9999 SCT015 SCT087 BKN093 18/14 Q1015 WHT
5:25 pm
M
66 °F 6¼ mi+ 1,600 ft 240°   240° 12 kt METAR EHLW 161525Z AUTO 24012KT 200V260 9999 BKN016 BKN020 BKN034 19/15 Q1015 WHT
4:56 pm
M
70 °F 6¼ mi+ 1,900 ft 240°   240° 11 kt METAR EHLW 161456Z AUTO 24011KT 200V270 9999 BKN019 OVC100 21/16 Q1015 WHT
4:55 pm
V
70 °F 6¼ mi+ 10,000 ft 240°   240° 12 kt METAR EHLW 161455Z AUTO 24012KT 210V270 9999 FEW019 SCT040 BKN100 21/15 Q1015 BLU
4:25 pm
V
68 °F 6¼ mi+ 9,200 ft 250°   250° 13 kt METAR EHLW 161425Z AUTO 25013KT 210V280 9999 BKN092 BKN097 OVC100 20/15 Q1015 BLU
3:57 pm
V
70 °F 6¼ mi+ 17,000 ft 260°   260° 13 kt METAR EHLW 161357Z AUTO 26013KT 230V290 9999 OVC170 21/15 Q1015 BLU
3:55 pm
V
68 °F 6¼ mi+ 17,000 ft 260°   260° 14 kt METAR EHLW 161355Z AUTO 26014KT 230V290 9999 OVC170 20/14 Q1014 BLU NOSIG
3:25 pm
V
72 °F 6¼ mi+ 12,000 ft 250°   250° 13 kt METAR EHLW 161325Z AUTO 25013KT 220V290 9999 BKN120 OVC190 22/14 Q1014 BLU NOSIG
2:55 pm
V
73 °F 6¼ mi+ 10,000 ft 220°   220° 10 kt METAR EHLW 161255Z AUTO 22010KT 170V250 9999 OVC100 23/12 Q1014 BLU NOSIG
2:25 pm
V
73 °F 6¼ mi+ 11,000 ft 190°   190° 9 kt METAR EHLW 161225Z AUTO 19009KT 150V230 9999 OVC110 23/13 Q1014 BLU BECMG 24011KT
1:55 pm
V
72 °F 6¼ mi+ 10,000 ft 170°   170° 9 kt METAR EHLW 161155Z AUTO 17009KT 120V230 9999 OVC100 22/11 Q1014 BLU BECMG 24011KT
1:25 pm
V
73 °F 6¼ mi+ 11,000 ft 160°   160° 8 kt METAR EHLW 161125Z AUTO 16008KT 100V200 9999 OVC110 23/12 Q1014 BLU BECMG 24011KT
12:55 pm
V
72 °F 6¼ mi+ 11,000 ft 160°   160° 8 kt METAR EHLW 161055Z AUTO 16008KT 100V180 9999 OVC110 22/12 Q1014 BLU BECMG 24011KT
12:25 pm
V
70 °F 6¼ mi+ 9,800 ft 140°   140° 8 kt METAR EHLW 161025Z AUTO 14008KT 070V170 9999 SCT092 BKN098 OVC100 21/11 Q1013 BLU BECMG 24011KT
11:55 am
V
70 °F 6¼ mi+ 11,000 ft 140°   140° 11 kt METAR EHLW 160955Z AUTO 14011KT 080V170 9999 OVC110 21/10 Q1013 BLU BECMG 24011KT
11:42 am
V
72 °F 6¼ mi+ 11,000 ft 140°   140° 9 kt METAR EHLW 160942Z AUTO 14009KT 100V170 9999 OVC110 22/11 Q1013 BLU BECMG 24011KT
11:27 am
V
72 °F 6¼ mi+ 16,000 ft 130°   130° 9 kt METAR EHLW 160927Z AUTO 13009KT 060V170 9999 OVC160 22/11 Q1013 BLU BECMG 24011KT
11:25 am
V
72 °F 6¼ mi+ 16,000 ft 120°   120° 8 kt METAR EHLW 160925Z AUTO 12008KT 060V170 9999 OVC160 22/12 Q1013 BLU NOSIG
11:10 am
V
70 °F 6¼ mi+ 16,000 ft 120°   120° 10 kt METAR EHLW 160910Z AUTO 12010KT 070V160 9999 OVC160 21/10 Q1013 BLU NOSIG
10:55 am
V
68 °F 6¼ mi+ 16,000 ft 120°   120° 9 kt METAR EHLW 160855Z AUTO 12009KT 070V160 9999 OVC160 20/10 Q1013 BLU BECMG 15008KT
Older data

Download our app

Easy access to all aviation weather on your mobile phone and tablet.
With many features not available on the website, like offline support and a personal airport list.